sensor_id;sensor_type;location;lat;lon;timestamp;P1;durP1;ratioP1;P2;durP2;ratioP2
64950;SDS011;51482;47.014;7.652;2022-12-19T00:00:41;8.63;;;6.27;;
64950;SDS011;51482;47.014;7.652;2022-12-19T00:03:07;8.77;;;6.00;;
64950;SDS011;51482;47.014;7.652;2022-12-19T00:05:36;8.57;;;5.70;;
64950;SDS011;51482;47.014;7.652;2022-12-19T00:08:03;9.80;;;5.77;;
64950;SDS011;51482;47.014;7.652;2022-12-19T00:10:29;8.30;;;6.37;;
64950;SDS011;51482;47.014;7.652;2022-12-19T00:12:55;8.40;;;6.00;;
64950;SDS011;51482;47.014;7.652;2022-12-19T00:15:20;8.37;;;6.13;;
64950;SDS011;51482;47.014;7.652;2022-12-19T00:17:46;8.30;;;5.70;;
64950;SDS011;51482;47.014;7.652;2022-12-19T00:20:11;9.87;;;6.10;;
64950;SDS011;51482;47.014;7.652;2022-12-19T00:22:37;7.80;;;5.10;;
64950;SDS011;51482;47.014;7.652;2022-12-19T00:25:03;6.23;;;4.43;;
64950;SDS011;51482;47.014;7.652;2022-12-19T00:27:32;5.30;;;4.70;;
64950;SDS011;51482;47.014;7.652;2022-12-19T00:29:58;7.83;;;4.90;;
64950;SDS011;51482;47.014;7.652;2022-12-19T00:32:24;5.57;;;4.50;;
64950;SDS011;51482;47.014;7.652;2022-12-19T00:34:49;7.43;;;4.63;;
64950;SDS011;51482;47.014;7.652;2022-12-19T00:37:15;5.77;;;4.20;;
64950;SDS011;51482;47.014;7.652;2022-12-19T00:39:40;5.60;;;4.47;;
64950;SDS011;51482;47.014;7.652;2022-12-19T00:42:06;5.97;;;4.63;;
64950;SDS011;51482;47.014;7.652;2022-12-19T00:44:31;5.43;;;4.60;;
64950;SDS011;51482;47.014;7.652;2022-12-19T00:46:57;7.77;;;5.00;;
64950;SDS011;51482;47.014;7.652;2022-12-19T00:49:23;6.57;;;5.00;;
64950;SDS011;51482;47.014;7.652;2022-12-19T00:51:48;7.50;;;5.13;;
64950;SDS011;51482;47.014;7.652;2022-12-19T00:54:14;7.97;;;5.70;;
64950;SDS011;51482;47.014;7.652;2022-12-19T00:56:39;7.07;;;5.20;;
64950;SDS011;51482;47.014;7.652;2022-12-19T00:59:05;5.80;;;4.73;;
64950;SDS011;51482;47.014;7.652;2022-12-19T01:01:31;6.37;;;4.57;;
64950;SDS011;51482;47.014;7.652;2022-12-19T01:03:59;6.57;;;4.70;;
64950;SDS011;51482;47.014;7.652;2022-12-19T01:06:26;6.80;;;4.80;;
64950;SDS011;51482;47.014;7.652;2022-12-19T01:08:52;7.93;;;4.40;;
64950;SDS011;51482;47.014;7.652;2022-12-19T01:11:19;8.70;;;5.17;;
64950;SDS011;51482;47.014;7.652;2022-12-19T01:14:04;7.67;;;4.80;;
64950;SDS011;51482;47.014;7.652;2022-12-19T01:16:30;7.17;;;5.40;;
64950;SDS011;51482;47.014;7.652;2022-12-19T01:18:55;6.57;;;4.73;;
64950;SDS011;51482;47.014;7.652;2022-12-19T01:21:21;5.23;;;4.40;;
64950;SDS011;51482;47.014;7.652;2022-12-19T01:23:47;6.07;;;4.40;;
64950;SDS011;51482;47.014;7.652;2022-12-19T01:26:12;5.50;;;4.13;;
64950;SDS011;51482;47.014;7.652;2022-12-19T01:28:38;5.53;;;3.87;;
64950;SDS011;51482;47.014;7.652;2022-12-19T01:31:04;6.33;;;4.63;;
64950;SDS011;51482;47.014;7.652;2022-12-19T01:33:30;6.33;;;4.13;;
64950;SDS011;51482;47.014;7.652;2022-12-19T01:35:56;7.07;;;4.20;;
64950;SDS011;51482;47.014;7.652;2022-12-19T01:38:21;6.63;;;4.97;;
64950;SDS011;51482;47.014;7.652;2022-12-19T01:40:54;6.10;;;4.57;;
64950;SDS011;51482;47.014;7.652;2022-12-19T01:43:24;6.20;;;4.53;;
64950;SDS011;51482;47.014;7.652;2022-12-19T01:45:54;6.10;;;4.57;;
64950;SDS011;51482;47.014;7.652;2022-12-19T01:48:35;5.50;;;4.33;;
64950;SDS011;51482;47.014;7.652;2022-12-19T01:51:06;6.47;;;4.83;;
64950;SDS011;51482;47.014;7.652;2022-12-19T01:53:45;5.57;;;4.70;;
64950;SDS011;51482;47.014;7.652;2022-12-19T01:56:13;5.87;;;3.90;;
64950;SDS011;51482;47.014;7.652;2022-12-19T01:58:41;4.80;;;4.10;;
64950;SDS011;51482;47.014;7.652;2022-12-19T02:01:10;5.27;;;4.10;;
64950;SDS011;51482;47.014;7.652;2022-12-19T02:03:36;7.00;;;4.50;;
64950;SDS011;51482;47.014;7.652;2022-12-19T02:06:03;5.07;;;3.73;;
64950;SDS011;51482;47.014;7.652;2022-12-19T02:08:30;5.63;;;3.97;;
64950;SDS011;51482;47.014;7.652;2022-12-19T02:10:56;5.57;;;4.20;;
64950;SDS011;51482;47.014;7.652;2022-12-19T02:13:21;5.73;;;4.27;;
64950;SDS011;51482;47.014;7.652;2022-12-19T02:15:56;6.50;;;4.33;;
64950;SDS011;51482;47.014;7.652;2022-12-19T02:32:21;6.50;;;4.40;;
64950;SDS011;51482;47.014;7.652;2022-12-19T02:37:27;6.10;;;3.77;;
64950;SDS011;51482;47.014;7.652;2022-12-19T02:40:04;5.80;;;4.10;;
64950;SDS011;51482;47.014;7.652;2022-12-19T02:42:45;5.20;;;4.23;;
64950;SDS011;51482;47.014;7.652;2022-12-19T02:45:14;7.40;;;4.30;;
64950;SDS011;51482;47.014;7.652;2022-12-19T02:47:43;4.60;;;4.07;;
64950;SDS011;51482;47.014;7.652;2022-12-19T02:50:09;5.23;;;4.53;;
64950;SDS011;51482;47.014;7.652;2022-12-19T02:55:08;5.97;;;4.37;;
64950;SDS011;51482;47.014;7.652;2022-12-19T02:57:39;6.60;;;4.13;;
64950;SDS011;51482;47.014;7.652;2022-12-19T03:00:29;5.27;;;3.80;;
64950;SDS011;51482;47.014;7.652;2022-12-19T03:03:11;3.87;;;3.47;;
64950;SDS011;51482;47.014;7.652;2022-12-19T03:08:40;4.57;;;3.87;;
64950;SDS011;51482;47.014;7.652;2022-12-19T03:11:21;4.77;;;3.90;;
64950;SDS011;51482;47.014;7.652;2022-12-19T03:16:35;4.87;;;3.90;;
64950;SDS011;51482;47.014;7.652;2022-12-19T03:19:02;6.23;;;3.97;;
64950;SDS011;51482;47.014;7.652;2022-12-19T03:24:02;5.17;;;3.40;;
64950;SDS011;51482;47.014;7.652;2022-12-19T03:26:31;4.50;;;3.80;;
64950;SDS011;51482;47.014;7.652;2022-12-19T03:29:08;5.00;;;3.60;;
64950;SDS011;51482;47.014;7.652;2022-12-19T03:31:39;4.37;;;3.53;;
64950;SDS011;51482;47.014;7.652;2022-12-19T03:34:18;5.80;;;3.20;;
64950;SDS011;51482;47.014;7.652;2022-12-19T03:36:54;4.17;;;3.20;;
64950;SDS011;51482;47.014;7.652;2022-12-19T03:39:24;4.87;;;3.50;;
64950;SDS011;51482;47.014;7.652;2022-12-19T03:41:50;4.77;;;3.60;;
64950;SDS011;51482;47.014;7.652;2022-12-19T03:44:36;5.07;;;3.50;;
64950;SDS011;51482;47.014;7.652;2022-12-19T03:49:31;5.10;;;3.60;;
64950;SDS011;51482;47.014;7.652;2022-12-19T03:52:02;5.93;;;3.70;;
64950;SDS011;51482;47.014;7.652;2022-12-19T03:54:50;4.27;;;3.50;;
64950;SDS011;51482;47.014;7.652;2022-12-19T03:57:25;3.50;;;3.10;;
64950;SDS011;51482;47.014;7.652;2022-12-19T03:59:59;4.27;;;3.13;;
64950;SDS011;51482;47.014;7.652;2022-12-19T04:02:28;4.27;;;3.43;;
64950;SDS011;51482;47.014;7.652;2022-12-19T04:04:59;4.93;;;3.50;;
64950;SDS011;51482;47.014;7.652;2022-12-19T04:07:30;4.60;;;3.20;;
64950;SDS011;51482;47.014;7.652;2022-12-19T04:09:57;4.67;;;3.40;;
64950;SDS011;51482;47.014;7.652;2022-12-19T04:12:28;4.93;;;3.10;;
64950;SDS011;51482;47.014;7.652;2022-12-19T04:14:57;3.50;;;3.20;;
64950;SDS011;51482;47.014;7.652;2022-12-19T04:17:33;4.10;;;3.20;;
64950;SDS011;51482;47.014;7.652;2022-12-19T04:20:18;4.60;;;3.83;;
64950;SDS011;51482;47.014;7.652;2022-12-19T04:23:09;5.47;;;3.47;;
64950;SDS011;51482;47.014;7.652;2022-12-19T04:25:36;3.23;;;2.93;;
64950;SDS011;51482;47.014;7.652;2022-12-19T04:28:06;4.03;;;3.53;;
64950;SDS011;51482;47.014;7.652;2022-12-19T04:30:37;4.60;;;2.93;;
64950;SDS011;51482;47.014;7.652;2022-12-19T04:33:06;4.20;;;3.60;;
64950;SDS011;51482;47.014;7.652;2022-12-19T04:35:31;4.50;;;3.53;;
64950;SDS011;51482;47.014;7.652;2022-12-19T04:37:58;3.47;;;3.17;;
64950;SDS011;51482;47.014;7.652;2022-12-19T04:40:24;4.13;;;3.30;;
64950;SDS011;51482;47.014;7.652;2022-12-19T04:42:49;4.70;;;3.53;;
64950;SDS011;51482;47.014;7.652;2022-12-19T04:45:15;3.73;;;3.20;;
64950;SDS011;51482;47.014;7.652;2022-12-19T04:47:40;3.90;;;3.30;;
64950;SDS011;51482;47.014;7.652;2022-12-19T04:50:06;4.27;;;3.40;;
64950;SDS011;51482;47.014;7.652;2022-12-19T04:52:33;4.67;;;3.17;;
64950;SDS011;51482;47.014;7.652;2022-12-19T04:54:58;3.30;;;3.00;;
64950;SDS011;51482;47.014;7.652;2022-12-19T04:57:24;4.77;;;3.23;;
64950;SDS011;51482;47.014;7.652;2022-12-19T04:59:49;4.77;;;3.77;;
64950;SDS011;51482;47.014;7.652;2022-12-19T05:02:15;3.53;;;3.20;;
64950;SDS011;51482;47.014;7.652;2022-12-19T05:04:40;3.63;;;3.33;;
64950;SDS011;51482;47.014;7.652;2022-12-19T05:07:06;4.57;;;3.00;;
64950;SDS011;51482;47.014;7.652;2022-12-19T05:09:31;5.70;;;2.93;;
64950;SDS011;51482;47.014;7.652;2022-12-19T05:11:57;5.43;;;3.77;;
64950;SDS011;51482;47.014;7.652;2022-12-19T05:14:23;4.43;;;3.50;;
64950;SDS011;51482;47.014;7.652;2022-12-19T05:16:48;3.80;;;2.90;;
64950;SDS011;51482;47.014;7.652;2022-12-19T05:19:14;4.13;;;3.27;;
64950;SDS011;51482;47.014;7.652;2022-12-19T05:21:40;4.40;;;3.50;;
64950;SDS011;51482;47.014;7.652;2022-12-19T05:24:05;4.97;;;3.53;;
64950;SDS011;51482;47.014;7.652;2022-12-19T05:26:31;5.77;;;4.17;;
64950;SDS011;51482;47.014;7.652;2022-12-19T05:28:57;4.73;;;3.67;;
64950;SDS011;51482;47.014;7.652;2022-12-19T05:31:22;4.50;;;3.50;;
64950;SDS011;51482;47.014;7.652;2022-12-19T05:33:48;4.90;;;3.87;;
64950;SDS011;51482;47.014;7.652;2022-12-19T05:36:14;5.73;;;3.60;;
64950;SDS011;51482;47.014;7.652;2022-12-19T05:38:41;4.47;;;3.80;;
64950;SDS011;51482;47.014;7.652;2022-12-19T05:41:17;4.63;;;3.73;;
64950;SDS011;51482;47.014;7.652;2022-12-19T05:43:44;3.83;;;3.30;;
64950;SDS011;51482;47.014;7.652;2022-12-19T05:46:10;4.30;;;3.90;;
64950;SDS011;51482;47.014;7.652;2022-12-19T05:48:36;5.60;;;3.80;;
64950;SDS011;51482;47.014;7.652;2022-12-19T05:51:02;5.83;;;3.80;;
64950;SDS011;51482;47.014;7.652;2022-12-19T05:53:28;6.07;;;4.03;;
64950;SDS011;51482;47.014;7.652;2022-12-19T05:56:03;9.17;;;5.80;;
64950;SDS011;51482;47.014;7.652;2022-12-19T05:58:34;9.17;;;5.83;;
64950;SDS011;51482;47.014;7.652;2022-12-19T06:01:13;5.50;;;4.80;;
64950;SDS011;51482;47.014;7.652;2022-12-19T06:03:39;5.00;;;3.87;;
64950;SDS011;51482;47.014;7.652;2022-12-19T06:06:06;5.67;;;3.73;;
64950;SDS011;51482;47.014;7.652;2022-12-19T06:08:36;4.57;;;3.97;;
64950;SDS011;51482;47.014;7.652;2022-12-19T06:11:03;5.47;;;3.90;;
64950;SDS011;51482;47.014;7.652;2022-12-19T06:13:30;6.50;;;4.30;;
64950;SDS011;51482;47.014;7.652;2022-12-19T06:15:57;4.77;;;4.10;;
64950;SDS011;51482;47.014;7.652;2022-12-19T06:18:28;5.13;;;3.93;;
64950;SDS011;51482;47.014;7.652;2022-12-19T06:20:55;6.30;;;4.13;;
64950;SDS011;51482;47.014;7.652;2022-12-19T06:23:24;4.13;;;3.53;;
64950;SDS011;51482;47.014;7.652;2022-12-19T06:25:50;4.23;;;2.97;;
64950;SDS011;51482;47.014;7.652;2022-12-19T06:28:15;4.17;;;3.37;;
64950;SDS011;51482;47.014;7.652;2022-12-19T06:30:41;4.60;;;3.33;;
64950;SDS011;51482;47.014;7.652;2022-12-19T06:33:06;4.43;;;2.70;;
64950;SDS011;51482;47.014;7.652;2022-12-19T06:35:32;3.17;;;2.43;;
64950;SDS011;51482;47.014;7.652;2022-12-19T06:37:57;2.97;;;2.63;;
64950;SDS011;51482;47.014;7.652;2022-12-19T06:40:23;2.90;;;2.70;;
64950;SDS011;51482;47.014;7.652;2022-12-19T06:43:07;3.93;;;3.00;;
64950;SDS011;51482;47.014;7.652;2022-12-19T06:45:33;5.67;;;3.03;;
64950;SDS011;51482;47.014;7.652;2022-12-19T06:47:58;3.80;;;3.30;;
64950;SDS011;51482;47.014;7.652;2022-12-19T06:50:24;3.70;;;3.00;;
64950;SDS011;51482;47.014;7.652;2022-12-19T06:52:49;5.37;;;3.50;;
64950;SDS011;51482;47.014;7.652;2022-12-19T06:55:15;5.40;;;3.93;;
64950;SDS011;51482;47.014;7.652;2022-12-19T06:57:40;4.73;;;4.10;;
64950;SDS011;51482;47.014;7.652;2022-12-19T07:00:11;6.17;;;5.10;;
64950;SDS011;51482;47.014;7.652;2022-12-19T07:02:37;8.90;;;4.90;;
64950;SDS011;51482;47.014;7.652;2022-12-19T07:05:06;7.27;;;5.03;;
64950;SDS011;51482;47.014;7.652;2022-12-19T07:07:33;4.70;;;4.23;;
64950;SDS011;51482;47.014;7.652;2022-12-19T07:09:59;5.43;;;4.07;;
64950;SDS011;51482;47.014;7.652;2022-12-19T07:12:24;7.97;;;4.43;;
64950;SDS011;51482;47.014;7.652;2022-12-19T07:14:50;6.93;;;4.80;;
64950;SDS011;51482;47.014;7.652;2022-12-19T07:17:16;6.90;;;4.80;;
64950;SDS011;51482;47.014;7.652;2022-12-19T07:19:43;5.23;;;4.50;;
64950;SDS011;51482;47.014;7.652;2022-12-19T07:22:09;5.33;;;4.20;;
64950;SDS011;51482;47.014;7.652;2022-12-19T07:24:34;4.40;;;3.70;;
64950;SDS011;51482;47.014;7.652;2022-12-19T07:27:01;5.80;;;4.30;;
64950;SDS011;51482;47.014;7.652;2022-12-19T07:29:27;5.87;;;4.40;;
64950;SDS011;51482;47.014;7.652;2022-12-19T07:31:52;8.03;;;4.10;;
64950;SDS011;51482;47.014;7.652;2022-12-19T07:34:18;6.10;;;3.80;;
64950;SDS011;51482;47.014;7.652;2022-12-19T07:36:44;8.70;;;3.90;;
64950;SDS011;51482;47.014;7.652;2022-12-19T07:39:10;6.33;;;4.40;;
64950;SDS011;51482;47.014;7.652;2022-12-19T07:41:36;8.57;;;5.00;;
64950;SDS011;51482;47.014;7.652;2022-12-19T07:44:02;7.77;;;4.70;;
64950;SDS011;51482;47.014;7.652;2022-12-19T07:46:28;9.93;;;5.40;;
64950;SDS011;51482;47.014;7.652;2022-12-19T07:48:58;7.17;;;4.80;;
64950;SDS011;51482;47.014;7.652;2022-12-19T07:51:24;11.50;;;5.40;;
64950;SDS011;51482;47.014;7.652;2022-12-19T07:53:50;9.47;;;4.70;;
64950;SDS011;51482;47.014;7.652;2022-12-19T07:56:16;7.27;;;4.77;;
64950;SDS011;51482;47.014;7.652;2022-12-19T07:58:42;6.87;;;4.90;;
64950;SDS011;51482;47.014;7.652;2022-12-19T08:01:08;7.50;;;4.27;;
64950;SDS011;51482;47.014;7.652;2022-12-19T08:03:36;15.60;;;8.77;;
64950;SDS011;51482;47.014;7.652;2022-12-19T08:06:03;23.60;;;11.50;;
64950;SDS011;51482;47.014;7.652;2022-12-19T08:08:30;21.23;;;12.13;;
64950;SDS011;51482;47.014;7.652;2022-12-19T08:11:04;18.03;;;10.80;;
64950;SDS011;51482;47.014;7.652;2022-12-19T08:13:34;13.70;;;8.93;;
64950;SDS011;51482;47.014;7.652;2022-12-19T08:16:00;13.07;;;6.93;;
64950;SDS011;51482;47.014;7.652;2022-12-19T08:18:26;8.90;;;5.50;;
64950;SDS011;51482;47.014;7.652;2022-12-19T08:20:52;7.73;;;5.20;;
64950;SDS011;51482;47.014;7.652;2022-12-19T08:23:17;8.07;;;5.13;;
64950;SDS011;51482;47.014;7.652;2022-12-19T08:25:43;9.63;;;7.40;;
64950;SDS011;51482;47.014;7.652;2022-12-19T08:28:09;6.70;;;5.87;;
64950;SDS011;51482;47.014;7.652;2022-12-19T08:30:36;7.30;;;4.13;;
64950;SDS011;51482;47.014;7.652;2022-12-19T08:33:02;6.33;;;4.27;;
64950;SDS011;51482;47.014;7.652;2022-12-19T08:35:29;5.60;;;5.00;;
64950;SDS011;51482;47.014;7.652;2022-12-19T08:37:55;5.30;;;4.40;;
64950;SDS011;51482;47.014;7.652;2022-12-19T08:40:21;6.27;;;4.10;;
64950;SDS011;51482;47.014;7.652;2022-12-19T08:42:47;4.87;;;4.27;;
64950;SDS011;51482;47.014;7.652;2022-12-19T08:45:14;6.93;;;4.47;;
64950;SDS011;51482;47.014;7.652;2022-12-19T08:47:41;5.67;;;4.40;;
64950;SDS011;51482;47.014;7.652;2022-12-19T08:50:07;6.80;;;4.70;;
64950;SDS011;51482;47.014;7.652;2022-12-19T08:52:33;6.00;;;4.77;;
64950;SDS011;51482;47.014;7.652;2022-12-19T08:54:59;6.57;;;4.30;;
64950;SDS011;51482;47.014;7.652;2022-12-19T08:57:25;6.63;;;5.20;;
64950;SDS011;51482;47.014;7.652;2022-12-19T08:59:50;7.43;;;5.23;;
64950;SDS011;51482;47.014;7.652;2022-12-19T09:02:16;7.27;;;5.87;;
64950;SDS011;51482;47.014;7.652;2022-12-19T09:04:41;9.47;;;5.70;;
64950;SDS011;51482;47.014;7.652;2022-12-19T09:07:07;7.67;;;5.73;;
64950;SDS011;51482;47.014;7.652;2022-12-19T09:09:32;9.20;;;6.27;;
64950;SDS011;51482;47.014;7.652;2022-12-19T09:11:58;7.10;;;5.23;;
64950;SDS011;51482;47.014;7.652;2022-12-19T09:14:23;7.13;;;4.53;;
64950;SDS011;51482;47.014;7.652;2022-12-19T09:16:49;6.40;;;4.97;;
64950;SDS011;51482;47.014;7.652;2022-12-19T09:19:14;6.73;;;4.77;;
64950;SDS011;51482;47.014;7.652;2022-12-19T09:21:41;6.10;;;4.80;;
64950;SDS011;51482;47.014;7.652;2022-12-19T09:24:07;5.53;;;4.80;;
64950;SDS011;51482;47.014;7.652;2022-12-19T09:26:34;5.60;;;4.70;;
64950;SDS011;51482;47.014;7.652;2022-12-19T09:29:01;6.33;;;4.93;;
64950;SDS011;51482;47.014;7.652;2022-12-19T09:31:28;4.67;;;4.20;;
64950;SDS011;51482;47.014;7.652;2022-12-19T09:33:53;8.43;;;4.47;;
64950;SDS011;51482;47.014;7.652;2022-12-19T09:36:20;5.63;;;4.63;;
64950;SDS011;51482;47.014;7.652;2022-12-19T09:38:48;7.63;;;5.43;;
64950;SDS011;51482;47.014;7.652;2022-12-19T09:47:12;6.87;;;5.30;;
64950;SDS011;51482;47.014;7.652;2022-12-19T09:49:42;6.53;;;5.50;;
64950;SDS011;51482;47.014;7.652;2022-12-19T09:54:57;7.80;;;5.53;;
64950;SDS011;51482;47.014;7.652;2022-12-19T09:57:33;7.37;;;5.30;;
64950;SDS011;51482;47.014;7.652;2022-12-19T10:00:09;6.67;;;5.47;;
64950;SDS011;51482;47.014;7.652;2022-12-19T10:02:59;7.37;;;4.87;;
64950;SDS011;51482;47.014;7.652;2022-12-19T10:05:29;4.97;;;4.43;;
64950;SDS011;51482;47.014;7.652;2022-12-19T10:08:00;4.70;;;4.27;;
64950;SDS011;51482;47.014;7.652;2022-12-19T10:10:31;7.60;;;5.03;;
64950;SDS011;51482;47.014;7.652;2022-12-19T10:13:27;5.00;;;4.50;;
64950;SDS011;51482;47.014;7.652;2022-12-19T10:16:02;7.73;;;4.70;;
64950;SDS011;51482;47.014;7.652;2022-12-19T10:24:01;5.23;;;4.33;;
64950;SDS011;51482;47.014;7.652;2022-12-19T10:26:28;6.37;;;4.57;;
64950;SDS011;51482;47.014;7.652;2022-12-19T10:34:35;7.73;;;4.80;;
64950;SDS011;51482;47.014;7.652;2022-12-19T10:37:18;6.77;;;4.50;;
64950;SDS011;51482;47.014;7.652;2022-12-19T10:42:48;6.67;;;4.80;;
64950;SDS011;51482;47.014;7.652;2022-12-19T10:45:23;6.33;;;5.67;;
64950;SDS011;51482;47.014;7.652;2022-12-19T10:47:55;8.10;;;4.17;;
64950;SDS011;51482;47.014;7.652;2022-12-19T10:50:22;6.10;;;4.23;;
64950;SDS011;51482;47.014;7.652;2022-12-19T10:52:51;9.43;;;4.23;;
64950;SDS011;51482;47.014;7.652;2022-12-19T10:58:20;9.80;;;4.37;;
64950;SDS011;51482;47.014;7.652;2022-12-19T11:01:04;16.97;;;4.83;;
64950;SDS011;51482;47.014;7.652;2022-12-19T11:03:36;9.93;;;4.30;;
64950;SDS011;51482;47.014;7.652;2022-12-19T11:06:03;4.73;;;4.10;;
64950;SDS011;51482;47.014;7.652;2022-12-19T11:08:31;5.80;;;3.73;;
64950;SDS011;51482;47.014;7.652;2022-12-19T11:15:59;5.00;;;3.83;;
64950;SDS011;51482;47.014;7.652;2022-12-19T11:18:42;4.93;;;3.53;;
64950;SDS011;51482;47.014;7.652;2022-12-19T11:26:54;6.13;;;4.00;;
64950;SDS011;51482;47.014;7.652;2022-12-19T11:32:21;15.70;;;5.20;;
64950;SDS011;51482;47.014;7.652;2022-12-19T11:35:00;7.37;;;4.77;;
64950;SDS011;51482;47.014;7.652;2022-12-19T11:40:19;8.00;;;4.40;;
64950;SDS011;51482;47.014;7.652;2022-12-19T11:43:12;6.13;;;4.77;;
64950;SDS011;51482;47.014;7.652;2022-12-19T11:53:46;5.70;;;4.47;;
64950;SDS011;51482;47.014;7.652;2022-12-19T11:56:29;4.13;;;3.73;;
64950;SDS011;51482;47.014;7.652;2022-12-19T11:59:09;4.73;;;3.80;;
64950;SDS011;51482;47.014;7.652;2022-12-19T12:07:52;4.23;;;3.83;;
64950;SDS011;51482;47.014;7.652;2022-12-19T12:10:41;5.13;;;3.60;;
64950;SDS011;51482;47.014;7.652;2022-12-19T12:13:20;5.33;;;4.00;;
64950;SDS011;51482;47.014;7.652;2022-12-19T12:16:08;12.93;;;4.77;;
64950;SDS011;51482;47.014;7.652;2022-12-19T12:21:22;5.83;;;3.87;;
64950;SDS011;51482;47.014;7.652;2022-12-19T12:24:12;5.70;;;4.03;;
64950;SDS011;51482;47.014;7.652;2022-12-19T12:27:09;6.27;;;3.63;;
64950;SDS011;51482;47.014;7.652;2022-12-19T12:37:51;4.77;;;4.03;;
64950;SDS011;51482;47.014;7.652;2022-12-19T12:46:10;6.10;;;3.90;;
64950;SDS011;51482;47.014;7.652;2022-12-19T12:48:57;5.17;;;3.90;;
64950;SDS011;51482;47.014;7.652;2022-12-19T12:51:27;4.27;;;3.73;;
64950;SDS011;51482;47.014;7.652;2022-12-19T12:54:06;3.40;;;3.10;;
64950;SDS011;51482;47.014;7.652;2022-12-19T12:56:36;3.90;;;3.33;;
64950;SDS011;51482;47.014;7.652;2022-12-19T12:59:04;3.60;;;3.00;;
64950;SDS011;51482;47.014;7.652;2022-12-19T13:01:47;4.33;;;3.57;;
64950;SDS011;51482;47.014;7.652;2022-12-19T13:04:27;3.93;;;3.37;;
64950;SDS011;51482;47.014;7.652;2022-12-19T13:12:51;3.73;;;3.23;;
64950;SDS011;51482;47.014;7.652;2022-12-19T13:15:35;4.57;;;3.50;;
64950;SDS011;51482;47.014;7.652;2022-12-19T13:20:56;3.93;;;3.47;;
64950;SDS011;51482;47.014;7.652;2022-12-19T13:23:31;5.50;;;4.23;;
64950;SDS011;51482;47.014;7.652;2022-12-19T13:25:58;6.47;;;3.40;;
64950;SDS011;51482;47.014;7.652;2022-12-19T13:31:13;6.37;;;4.00;;
64950;SDS011;51482;47.014;7.652;2022-12-19T13:42:09;3.93;;;3.53;;
64950;SDS011;51482;47.014;7.652;2022-12-19T13:44:57;6.67;;;3.53;;
64950;SDS011;51482;47.014;7.652;2022-12-19T13:47:40;4.63;;;3.70;;
64950;SDS011;51482;47.014;7.652;2022-12-19T13:50:16;4.57;;;3.40;;
64950;SDS011;51482;47.014;7.652;2022-12-19T13:52:59;3.67;;;3.07;;
64950;SDS011;51482;47.014;7.652;2022-12-19T13:55:29;4.20;;;3.80;;
64950;SDS011;51482;47.014;7.652;2022-12-19T13:57:55;4.70;;;3.47;;
64950;SDS011;51482;47.014;7.652;2022-12-19T14:00:29;9.50;;;5.00;;
64950;SDS011;51482;47.014;7.652;2022-12-19T14:03:04;10.03;;;7.77;;
64950;SDS011;51482;47.014;7.652;2022-12-19T14:05:40;9.03;;;6.87;;
64950;SDS011;51482;47.014;7.652;2022-12-19T14:08:06;3.80;;;3.43;;
64950;SDS011;51482;47.014;7.652;2022-12-19T14:10:34;5.77;;;3.97;;
64950;SDS011;51482;47.014;7.652;2022-12-19T14:13:03;3.70;;;3.13;;
64950;SDS011;51482;47.014;7.652;2022-12-19T14:15:49;7.13;;;4.40;;
64950;SDS011;51482;47.014;7.652;2022-12-19T14:18:20;5.80;;;3.50;;
64950;SDS011;51482;47.014;7.652;2022-12-19T14:20:47;3.70;;;3.23;;
64950;SDS011;51482;47.014;7.652;2022-12-19T14:23:14;5.40;;;3.70;;
64950;SDS011;51482;47.014;7.652;2022-12-19T14:25:50;4.53;;;4.03;;
64950;SDS011;51482;47.014;7.652;2022-12-19T14:28:19;4.53;;;3.20;;
64950;SDS011;51482;47.014;7.652;2022-12-19T14:30:50;4.47;;;3.50;;
64950;SDS011;51482;47.014;7.652;2022-12-19T14:33:21;4.23;;;3.20;;
64950;SDS011;51482;47.014;7.652;2022-12-19T14:36:03;4.20;;;3.80;;
64950;SDS011;51482;47.014;7.652;2022-12-19T14:38:30;5.00;;;3.93;;
64950;SDS011;51482;47.014;7.652;2022-12-19T14:40:58;4.90;;;3.83;;
64950;SDS011;51482;47.014;7.652;2022-12-19T14:43:26;4.30;;;3.40;;
64950;SDS011;51482;47.014;7.652;2022-12-19T14:46:13;4.30;;;3.37;;
64950;SDS011;51482;47.014;7.652;2022-12-19T14:48:59;4.23;;;3.30;;
64950;SDS011;51482;47.014;7.652;2022-12-19T14:56:40;4.13;;;3.70;;
64950;SDS011;51482;47.014;7.652;2022-12-19T15:01:59;4.77;;;4.10;;
64950;SDS011;51482;47.014;7.652;2022-12-19T15:04:47;3.73;;;3.20;;
64950;SDS011;51482;47.014;7.652;2022-12-19T15:07:25;4.07;;;3.20;;
64950;SDS011;51482;47.014;7.652;2022-12-19T15:09:55;3.90;;;3.30;;
64950;SDS011;51482;47.014;7.652;2022-12-19T15:12:31;5.43;;;3.67;;
64950;SDS011;51482;47.014;7.652;2022-12-19T15:15:24;5.13;;;4.10;;
64950;SDS011;51482;47.014;7.652;2022-12-19T15:18:02;4.90;;;4.20;;
64950;SDS011;51482;47.014;7.652;2022-12-19T15:20:38;5.60;;;4.67;;
64950;SDS011;51482;47.014;7.652;2022-12-19T15:23:03;5.03;;;4.47;;
64950;SDS011;51482;47.014;7.652;2022-12-19T15:25:29;6.57;;;4.90;;
64950;SDS011;51482;47.014;7.652;2022-12-19T15:27:54;6.73;;;4.50;;
64950;SDS011;51482;47.014;7.652;2022-12-19T15:30:20;6.80;;;4.10;;
64950;SDS011;51482;47.014;7.652;2022-12-19T15:32:46;5.80;;;4.13;;
64950;SDS011;51482;47.014;7.652;2022-12-19T15:35:13;7.23;;;4.90;;
64950;SDS011;51482;47.014;7.652;2022-12-19T15:37:40;6.00;;;4.23;;
64950;SDS011;51482;47.014;7.652;2022-12-19T15:40:06;4.40;;;3.53;;
64950;SDS011;51482;47.014;7.652;2022-12-19T15:42:38;4.67;;;3.60;;
64950;SDS011;51482;47.014;7.652;2022-12-19T15:45:03;4.97;;;3.73;;
64950;SDS011;51482;47.014;7.652;2022-12-19T15:49:55;5.57;;;3.93;;
64950;SDS011;51482;47.014;7.652;2022-12-19T15:52:22;5.27;;;3.53;;
64950;SDS011;51482;47.014;7.652;2022-12-19T15:54:49;4.33;;;3.67;;
64950;SDS011;51482;47.014;7.652;2022-12-19T15:59:54;7.70;;;4.30;;
64950;SDS011;51482;47.014;7.652;2022-12-19T16:02:22;8.83;;;7.23;;
64950;SDS011;51482;47.014;7.652;2022-12-19T16:04:49;11.47;;;8.67;;
64950;SDS011;51482;47.014;7.652;2022-12-19T16:07:19;10.73;;;7.03;;
64950;SDS011;51482;47.014;7.652;2022-12-19T16:09:46;10.33;;;7.10;;
64950;SDS011;51482;47.014;7.652;2022-12-19T16:12:23;12.67;;;9.17;;
64950;SDS011;51482;47.014;7.652;2022-12-19T16:14:55;12.83;;;9.33;;
64950;SDS011;51482;47.014;7.652;2022-12-19T16:17:24;12.67;;;8.40;;
64950;SDS011;51482;47.014;7.652;2022-12-19T16:19:50;9.53;;;7.20;;
64950;SDS011;51482;47.014;7.652;2022-12-19T16:22:21;11.67;;;8.00;;
64950;SDS011;51482;47.014;7.652;2022-12-19T16:24:48;9.63;;;6.87;;
64950;SDS011;51482;47.014;7.652;2022-12-19T16:29:43;6.67;;;4.57;;
64950;SDS011;51482;47.014;7.652;2022-12-19T16:32:11;7.53;;;4.87;;
64950;SDS011;51482;47.014;7.652;2022-12-19T16:34:37;6.00;;;4.50;;
64950;SDS011;51482;47.014;7.652;2022-12-19T16:37:03;6.50;;;4.40;;
64950;SDS011;51482;47.014;7.652;2022-12-19T16:39:28;6.93;;;5.07;;
64950;SDS011;51482;47.014;7.652;2022-12-19T16:41:54;7.93;;;5.43;;
64950;SDS011;51482;47.014;7.652;2022-12-19T16:44:20;8.70;;;6.07;;
64950;SDS011;51482;47.014;7.652;2022-12-19T16:46:48;7.50;;;6.07;;
64950;SDS011;51482;47.014;7.652;2022-12-19T16:49:15;8.07;;;6.20;;
64950;SDS011;51482;47.014;7.652;2022-12-19T17:01:51;4.23;;;3.73;;
64950;SDS011;51482;47.014;7.652;2022-12-19T17:04:18;4.97;;;4.03;;
64950;SDS011;51482;47.014;7.652;2022-12-19T17:06:45;5.60;;;4.27;;
64950;SDS011;51482;47.014;7.652;2022-12-19T17:09:15;5.43;;;3.97;;
64950;SDS011;51482;47.014;7.652;2022-12-19T17:11:43;7.77;;;5.27;;
64950;SDS011;51482;47.014;7.652;2022-12-19T17:14:16;7.67;;;4.73;;
64950;SDS011;51482;47.014;7.652;2022-12-19T17:16:46;6.67;;;4.63;;
64950;SDS011;51482;47.014;7.652;2022-12-19T17:19:20;6.83;;;4.23;;
64950;SDS011;51482;47.014;7.652;2022-12-19T17:21:48;6.93;;;4.63;;
64950;SDS011;51482;47.014;7.652;2022-12-19T17:24:14;8.67;;;6.03;;
64950;SDS011;51482;47.014;7.652;2022-12-19T17:26:41;8.87;;;6.03;;
64950;SDS011;51482;47.014;7.652;2022-12-19T17:29:07;9.03;;;6.30;;
64950;SDS011;51482;47.014;7.652;2022-12-19T17:31:34;9.00;;;5.93;;